createdAt,value
2018-09-04T00:02:04.151Z,1.85
2018-09-04T00:04:33.507Z,2.83
2018-09-04T00:07:03.135Z,2.30
2018-09-04T00:09:32.761Z,3.83
2018-09-04T00:12:02.159Z,2.62
2018-09-04T00:14:31.860Z,1.80
2018-09-04T00:17:01.876Z,3.72
2018-09-04T00:19:31.297Z,2.35
2018-09-04T00:22:00.751Z,1.92
2018-09-04T00:24:31.155Z,3.17
2018-09-04T00:27:00.648Z,2.35
2018-09-04T00:29:30.899Z,2.70
2018-09-04T00:32:00.676Z,2.20
2018-09-04T00:34:30.287Z,2.53
2018-09-04T00:37:00.213Z,2.80
2018-09-04T00:39:29.969Z,3.12
2018-09-04T00:41:59.637Z,3.47
2018-09-04T00:44:30.229Z,2.72
2018-09-04T00:46:59.708Z,3.97
2018-09-04T00:49:29.454Z,3.12
2018-09-04T00:51:59.012Z,2.45
2018-09-04T00:54:28.607Z,2.28
2018-09-04T00:56:59.635Z,3.37
2018-09-04T00:59:29.701Z,2.15
2018-09-04T01:01:59.934Z,3.17
2018-09-04T01:04:29.378Z,2.62
2018-09-04T01:06:58.900Z,2.87
2018-09-04T01:09:30.975Z,2.50
2018-09-04T01:12:01.419Z,2.95
2018-09-04T01:14:31.125Z,2.67
2018-09-04T01:17:00.729Z,2.75
2018-09-04T01:19:30.021Z,3.60
2018-09-04T01:22:00.069Z,2.42
2018-09-04T01:24:30.184Z,2.95
2018-09-04T01:27:00.172Z,5.75
2018-09-04T01:29:29.567Z,2.45
2018-09-04T01:32:01.970Z,4.50
2018-09-04T01:36:58.758Z,3.58
2018-09-04T01:39:30.897Z,5.18
2018-09-04T01:42:03.072Z,10.10
2018-09-04T01:44:34.893Z,5.82
2018-09-04T01:47:05.977Z,4.72
2018-09-04T01:49:36.547Z,2.45
2018-09-04T01:52:06.247Z,2.08
2018-09-04T01:54:36.466Z,2.62
2018-09-04T01:57:06.119Z,3.60
2018-09-04T01:59:36.544Z,1.92
2018-09-04T02:02:06.151Z,1.77
2018-09-04T02:04:35.648Z,3.05
2018-09-04T02:07:04.824Z,2.60
2018-09-04T02:09:34.310Z,2.25
2018-09-04T02:12:04.263Z,2.12
2018-09-04T02:14:33.792Z,2.97
2018-09-04T02:17:03.976Z,3.55
2018-09-04T02:19:33.892Z,2.45
2018-09-04T02:22:04.298Z,3.78
2018-09-04T02:24:35.330Z,2.65
2018-09-04T02:27:04.896Z,2.50
2018-09-04T02:29:35.291Z,3.28
2018-09-04T02:32:06.626Z,2.92
2018-09-04T02:34:36.351Z,3.22
2018-09-04T02:37:06.827Z,3.00
2018-09-04T02:39:36.377Z,2.87
2018-09-04T02:42:05.940Z,3.33
2018-09-04T02:44:35.666Z,3.87
2018-09-04T02:47:05.279Z,3.55
2018-09-04T02:49:34.846Z,2.20
2018-09-04T02:52:04.763Z,3.05
2018-09-04T02:54:34.285Z,2.22
2018-09-04T02:57:03.731Z,2.87
2018-09-04T02:59:34.684Z,2.95
2018-09-04T03:02:05.360Z,2.30
2018-09-04T03:04:34.890Z,2.72
2018-09-04T03:07:04.456Z,2.10
2018-09-04T03:09:33.809Z,2.90
2018-09-04T03:12:03.531Z,2.80
2018-09-04T03:14:33.157Z,2.90
2018-09-04T03:17:04.405Z,2.75
2018-09-04T03:19:33.794Z,2.70
2018-09-04T03:22:03.596Z,2.22
2018-09-04T03:24:33.449Z,2.35
2018-09-04T03:27:02.873Z,2.50
2018-09-04T03:29:32.907Z,3.80
2018-09-04T03:32:02.341Z,4.55
2018-09-04T03:34:31.707Z,3.08
2018-09-04T03:37:01.329Z,3.78
2018-09-04T03:39:31.313Z,5.03
2018-09-04T03:42:00.908Z,4.00
2018-09-04T03:44:30.636Z,5.18
2018-09-04T03:47:00.502Z,3.65
2018-09-04T03:49:29.989Z,3.30
2018-09-04T03:51:59.631Z,3.22
2018-09-04T03:54:29.276Z,2.87
2018-09-04T03:56:58.735Z,3.62
2018-09-04T03:59:28.518Z,3.12
2018-09-04T04:01:58.924Z,3.55
2018-09-04T04:04:28.304Z,3.62
2018-09-04T04:06:58.318Z,3.78
2018-09-04T04:09:27.896Z,3.35
2018-09-04T04:11:58.262Z,3.20
2018-09-04T04:14:28.408Z,2.75
2018-09-04T04:16:57.578Z,4.40
2018-09-04T04:19:28.438Z,2.70
2018-09-04T04:21:58.237Z,3.12
2018-09-04T04:24:27.919Z,4.25
2018-09-04T04:26:57.519Z,3.30
2018-09-04T04:29:27.854Z,3.15
2018-09-04T04:31:57.506Z,3.25
2018-09-04T04:34:27.592Z,5.18
2018-09-04T04:36:57.223Z,2.67
2018-09-04T04:39:27.078Z,3.60
2018-09-04T04:41:57.008Z,5.47
2018-09-04T04:44:26.640Z,3.53
2018-09-04T04:46:56.130Z,2.87
2018-09-04T04:49:26.546Z,2.45
2018-09-04T04:51:57.150Z,3.62
2018-09-04T04:54:26.732Z,3.90
2018-09-04T04:56:56.224Z,3.25
2018-09-04T04:59:25.657Z,5.50
2018-09-04T05:01:56.529Z,3.15
2018-09-04T05:04:26.434Z,3.10
2018-09-04T05:06:56.308Z,3.75
2018-09-04T05:09:25.795Z,3.37
2018-09-04T05:11:55.370Z,5.07
2018-09-04T05:14:25.036Z,2.85
2018-09-04T05:16:54.601Z,3.78
2018-09-04T05:19:24.252Z,4.05
2018-09-04T05:21:53.760Z,4.68
2018-09-04T05:24:23.439Z,3.53
2018-09-04T05:26:52.766Z,3.25
2018-09-04T05:29:22.297Z,2.72
2018-09-04T05:31:54.872Z,4.70
2018-09-04T05:34:24.279Z,4.10
2018-09-04T05:36:53.917Z,4.20
2018-09-04T05:39:23.613Z,3.33
2018-09-04T05:41:53.095Z,3.22
2018-09-04T05:44:22.285Z,4.53
2018-09-04T05:46:53.252Z,3.37
2018-09-04T05:49:23.853Z,3.03
2018-09-04T05:51:53.616Z,2.97
2018-09-04T05:54:23.691Z,2.65
2018-09-04T05:56:53.040Z,4.53
2018-09-04T05:59:22.834Z,3.35
2018-09-04T06:01:52.438Z,3.20
2018-09-04T06:04:22.063Z,2.78
2018-09-04T06:06:52.352Z,3.00
2018-09-04T06:09:28.204Z,5.57
2018-09-04T06:11:58.485Z,3.95
2018-09-04T06:14:28.509Z,6.50
2018-09-04T06:16:58.076Z,3.20
2018-09-04T06:19:28.050Z,4.35
2018-09-04T06:21:58.589Z,4.07
2018-09-04T06:24:28.133Z,4.57
2018-09-04T06:26:57.882Z,4.78
2018-09-04T06:29:28.380Z,4.27
2018-09-04T06:31:57.658Z,3.30
2018-09-04T06:34:28.206Z,3.30
2018-09-04T06:36:57.685Z,3.67
2018-09-04T06:39:27.798Z,3.47
2018-09-04T06:41:57.324Z,3.30
2018-09-04T06:44:26.780Z,5.10
2018-09-04T06:46:56.553Z,7.93
2018-09-04T06:49:26.170Z,5.10
2018-09-04T06:51:55.482Z,3.63
2018-09-04T06:54:24.835Z,2.70
2018-09-04T06:56:54.332Z,3.83
2018-09-04T06:59:24.743Z,5.10
2018-09-04T07:01:54.191Z,4.03
2018-09-04T07:04:23.623Z,4.43
2018-09-04T07:06:53.064Z,3.90
2018-09-04T07:09:22.387Z,3.53
2018-09-04T07:11:51.919Z,4.03
2018-09-04T07:14:21.676Z,3.00
2018-09-04T07:16:52.332Z,3.43
2018-09-04T07:19:21.952Z,2.97
2018-09-04T07:21:52.557Z,2.70
2018-09-04T07:24:22.350Z,3.53
2018-09-04T07:26:52.060Z,4.13
2018-09-04T07:29:21.657Z,3.33
2018-09-04T07:31:51.257Z,5.47
2018-09-04T07:34:20.771Z,3.30
2018-09-04T07:36:50.226Z,3.70
2018-09-04T07:39:20.003Z,3.47
2018-09-04T07:41:49.631Z,3.30
2018-09-04T07:44:20.531Z,3.23
2018-09-04T07:46:50.166Z,2.70
2018-09-04T07:49:20.041Z,3.47
2018-09-04T07:51:49.627Z,2.67
2018-09-04T07:54:19.155Z,3.60
2018-09-04T07:56:48.485Z,5.27
2018-09-04T07:59:17.979Z,3.73
2018-09-04T08:01:47.385Z,3.87
2018-09-04T08:04:17.066Z,3.63
2018-09-04T08:06:47.222Z,3.63
2018-09-04T08:09:16.846Z,4.20
2018-09-04T08:11:46.614Z,3.10
2018-09-04T08:14:17.193Z,3.53
2018-09-04T08:16:46.659Z,3.40
2018-09-04T08:19:16.228Z,5.30
2018-09-04T08:21:46.842Z,4.60
2018-09-04T08:24:16.650Z,3.90
2018-09-04T08:26:46.324Z,3.00
2018-09-04T08:29:15.841Z,4.27
2018-09-04T08:31:45.487Z,3.00
2018-09-04T08:34:15.119Z,3.10
2018-09-04T08:36:44.623Z,3.23
2018-09-04T08:39:14.247Z,3.13
2018-09-04T08:41:44.165Z,3.70
2018-09-04T08:44:13.534Z,3.53
2018-09-04T08:46:43.114Z,2.43
2018-09-04T08:49:12.749Z,3.33
2018-09-04T08:51:42.227Z,4.03
2018-09-04T08:54:11.740Z,3.90
2018-09-04T08:56:43.104Z,3.40
2018-09-04T08:59:12.583Z,3.17
2018-09-04T09:01:41.967Z,3.50
2018-09-04T09:04:11.948Z,3.30
2018-09-04T09:06:41.597Z,3.23
2018-09-04T09:09:10.973Z,3.60
2018-09-04T09:11:40.525Z,4.43
2018-09-04T09:14:10.792Z,3.77
2018-09-04T09:16:40.834Z,3.87
2018-09-04T09:19:10.467Z,3.57
2018-09-04T09:21:40.012Z,4.30
2018-09-04T09:24:09.675Z,5.43
2018-09-04T09:26:39.236Z,5.47
2018-09-04T09:29:08.247Z,3.50
2018-09-04T09:31:38.745Z,3.47
2018-09-04T09:34:08.143Z,3.97
2018-09-04T09:36:37.959Z,5.03
2018-09-04T09:39:08.090Z,5.10
2018-09-04T09:41:37.284Z,3.73
2018-09-04T09:44:07.062Z,5.13
2018-09-04T09:46:36.622Z,4.47
2018-09-04T09:49:07.016Z,3.33
2018-09-04T09:51:36.388Z,3.63
2018-09-04T09:54:06.622Z,3.40
2018-09-04T09:56:36.836Z,3.57
2018-09-04T09:59:06.448Z,3.97
2018-09-04T10:01:36.011Z,4.67
2018-09-04T10:04:07.797Z,3.30
2018-09-04T10:06:37.605Z,4.87
2018-09-04T10:09:07.024Z,3.33
2018-09-04T10:11:37.263Z,5.57
2018-09-04T10:14:06.854Z,3.43
2018-09-04T10:16:36.956Z,3.60
2018-09-04T10:19:06.689Z,3.40
2018-09-04T10:21:37.037Z,3.70
2018-09-04T10:24:06.444Z,3.60
2018-09-04T10:26:36.200Z,4.37
2018-09-04T10:29:05.921Z,3.07
2018-09-04T10:31:35.836Z,4.13
2018-09-04T10:34:05.254Z,3.57
2018-09-04T10:36:36.176Z,5.30
2018-09-04T10:39:07.385Z,3.87
2018-09-04T10:41:36.891Z,3.40
2018-09-04T10:44:07.069Z,3.40
2018-09-04T10:46:37.465Z,3.40
2018-09-04T10:49:06.903Z,3.30
2018-09-04T10:51:37.080Z,5.00
2018-09-04T10:54:06.804Z,3.10
2018-09-04T10:56:36.721Z,3.73
2018-09-04T10:59:07.574Z,4.53
2018-09-04T11:01:37.392Z,3.63
2018-09-04T11:04:08.101Z,3.40
2018-09-04T11:06:38.291Z,3.40
2018-09-04T11:09:08.086Z,3.73
2018-09-04T11:11:37.742Z,4.03
2018-09-04T11:14:07.144Z,6.03
2018-09-04T11:16:36.272Z,4.43
2018-09-04T11:19:06.799Z,5.10
2018-09-04T11:21:36.780Z,3.20
2018-09-04T11:24:06.208Z,3.93
2018-09-04T11:26:35.780Z,3.67
2018-09-04T11:29:05.316Z,4.83
2018-09-04T11:31:35.538Z,8.50
2018-09-04T11:34:05.811Z,3.50
2018-09-04T11:36:35.478Z,4.33
2018-09-04T11:39:05.460Z,5.60
2018-09-04T11:41:36.018Z,3.83
2018-09-04T11:44:06.307Z,4.00
2018-09-04T11:46:35.869Z,4.50
2018-09-04T11:49:05.205Z,4.87
2018-09-04T11:51:35.049Z,4.17
2018-09-04T11:54:04.748Z,3.67
2018-09-04T11:56:35.090Z,4.07
2018-09-04T11:59:04.792Z,5.33
2018-09-04T12:01:34.498Z,3.70
2018-09-04T12:04:05.338Z,5.27
2018-09-04T12:06:34.748Z,3.67
2018-09-04T12:09:04.669Z,3.60
2018-09-04T12:11:34.354Z,5.97
2018-09-04T12:14:03.853Z,5.37
2018-09-04T12:16:33.497Z,3.90
2018-09-04T12:19:03.223Z,4.17
2018-09-04T12:21:32.983Z,4.93
2018-09-04T12:24:02.888Z,4.43
2018-09-04T12:26:32.171Z,3.80
2018-09-04T12:29:02.001Z,5.67
2018-09-04T12:31:31.593Z,6.30
2018-09-04T12:34:01.206Z,4.40
2018-09-04T12:36:30.637Z,4.27
2018-09-04T12:39:00.159Z,4.70
2018-09-04T12:41:29.885Z,4.93
2018-09-04T12:44:00.505Z,4.50
2018-09-04T12:46:30.885Z,3.80
2018-09-04T12:49:00.306Z,7.53
2018-09-04T12:51:29.645Z,4.37
2018-09-04T12:54:00.184Z,4.70
2018-09-04T12:56:30.624Z,3.50
2018-09-04T12:59:00.196Z,7.33
2018-09-04T13:01:29.716Z,4.33
2018-09-04T13:03:59.177Z,4.30
2018-09-04T13:06:28.718Z,4.97
2018-09-04T13:08:58.123Z,3.97
2018-09-04T13:11:29.020Z,3.40
2018-09-04T13:13:58.564Z,4.00
2018-09-04T13:16:28.621Z,4.00
2018-09-04T13:18:58.738Z,4.20
2018-09-04T13:21:28.529Z,4.40
2018-09-04T13:23:58.591Z,6.20
2018-09-04T13:26:28.434Z,6.30
2018-09-04T13:28:57.702Z,5.53
2018-09-04T13:31:27.236Z,5.37
2018-09-04T13:34:00.038Z,3.87
2018-09-04T13:36:30.477Z,5.37
2018-09-04T13:39:00.266Z,5.23
2018-09-04T13:41:30.736Z,5.10
2018-09-04T13:44:00.275Z,3.90
2018-09-04T13:46:30.001Z,4.10
2018-09-04T13:49:00.213Z,4.03
2018-09-04T13:51:30.168Z,5.33
2018-09-04T13:53:59.978Z,3.83
2018-09-04T13:56:30.531Z,4.27
2018-09-04T13:59:00.666Z,5.50
2018-09-04T14:01:31.324Z,4.37
2018-09-04T14:04:02.017Z,4.40
2018-09-04T14:06:31.844Z,4.23
2018-09-04T14:09:01.164Z,3.90
2018-09-04T14:11:32.523Z,4.83
2018-09-04T14:14:02.226Z,5.90
2018-09-04T14:16:43.150Z,4.53
2018-09-04T14:19:01.501Z,4.77
2018-09-04T14:21:31.026Z,4.13
2018-09-04T14:24:01.585Z,3.93
2018-09-04T14:26:32.077Z,4.87
2018-09-04T14:29:08.933Z,4.43
2018-09-04T14:31:32.028Z,5.93
2018-09-04T14:34:01.867Z,8.10
2018-09-04T14:36:32.507Z,5.43
2018-09-04T14:39:02.080Z,5.23
2018-09-04T14:41:32.084Z,4.03
2018-09-04T14:44:01.499Z,4.20
2018-09-04T14:46:31.136Z,4.73
2018-09-04T14:49:00.915Z,4.97
2018-09-04T14:51:31.872Z,4.00
2018-09-04T14:54:01.312Z,4.50
2018-09-04T14:56:31.702Z,4.33
2018-09-04T14:59:01.425Z,4.80
2018-09-04T15:01:31.903Z,5.03
2018-09-04T15:04:02.432Z,6.57
2018-09-04T15:06:31.987Z,6.67
2018-09-04T15:09:00.990Z,3.97
2018-09-04T15:11:30.467Z,4.80
2018-09-04T15:14:00.311Z,5.10
2018-09-04T15:16:30.776Z,4.53
2018-09-04T15:19:00.402Z,4.10
2018-09-04T15:21:29.775Z,5.13
2018-09-04T15:23:59.043Z,4.40
2018-09-04T15:26:28.697Z,5.23
2018-09-04T15:28:58.063Z,4.67
2018-09-04T15:31:27.867Z,6.93
2018-09-04T15:33:59.251Z,4.90
2018-09-04T15:36:29.099Z,4.20
2018-09-04T15:38:58.538Z,6.80
2018-09-04T15:41:28.892Z,5.65
2018-09-04T15:43:58.381Z,6.10
2018-09-04T15:46:28.005Z,5.65
2018-09-04T15:48:57.544Z,6.03
2018-09-04T15:51:26.950Z,6.95
2018-09-04T15:53:56.447Z,6.50
2018-09-04T15:56:25.995Z,7.60
2018-09-04T15:58:56.381Z,4.93
2018-09-04T16:01:27.057Z,5.40
2018-09-04T16:03:57.007Z,4.12
2018-09-04T16:06:26.645Z,5.87
2018-09-04T16:08:55.924Z,4.68
2018-09-04T16:11:25.676Z,6.15
2018-09-04T16:13:56.201Z,6.75
2018-09-04T16:16:26.072Z,5.97
2018-09-04T16:18:55.578Z,5.18
2018-09-04T16:21:25.180Z,5.22
2018-09-04T16:23:54.707Z,6.30
2018-09-04T16:26:24.322Z,4.70
2018-09-04T16:28:53.924Z,4.60
2018-09-04T16:31:24.633Z,4.62
2018-09-04T16:33:54.200Z,5.43
2018-09-04T16:36:24.725Z,5.12
2018-09-04T16:38:54.489Z,4.70
2018-09-04T16:41:23.849Z,4.43
2018-09-04T16:43:53.401Z,5.10
2018-09-04T16:46:24.518Z,4.70
2018-09-04T16:48:54.954Z,5.68
2018-09-04T16:51:24.739Z,4.78
2018-09-04T16:53:54.705Z,6.30
2018-09-04T16:56:24.208Z,4.32
2018-09-04T16:58:53.811Z,5.15
2018-09-04T17:01:23.096Z,5.00
2018-09-04T17:03:52.795Z,4.75
2018-09-04T17:06:22.281Z,4.55
2018-09-04T17:08:51.940Z,3.65
2018-09-04T17:11:21.611Z,4.80
2018-09-04T17:13:51.326Z,3.87
2018-09-04T17:16:21.010Z,3.10
2018-09-04T17:18:51.092Z,4.28
2018-09-04T17:21:20.552Z,6.25
2018-09-04T17:23:50.916Z,3.35
2018-09-04T17:26:21.541Z,5.65
2018-09-04T17:28:54.755Z,4.05
2018-09-04T17:31:24.421Z,4.32
2018-09-04T17:33:56.936Z,5.87
2018-09-04T17:36:26.532Z,4.45
2018-09-04T17:38:56.133Z,6.68
2018-09-04T17:41:25.756Z,5.93
2018-09-04T17:43:56.495Z,5.45
2018-09-04T17:46:26.509Z,4.12
2018-09-04T17:48:57.248Z,5.75
2018-09-04T17:51:26.913Z,3.30
2018-09-04T17:53:56.687Z,4.70
2018-09-04T17:56:26.243Z,4.05
2018-09-04T17:58:56.134Z,7.70
2018-09-04T18:01:25.913Z,6.07
2018-09-04T18:03:55.562Z,4.90
2018-09-04T18:06:25.482Z,4.57
2018-09-04T18:08:56.620Z,3.65
2018-09-04T18:11:26.522Z,4.72
2018-09-04T18:13:56.062Z,4.87
2018-09-04T18:16:25.782Z,4.35
2018-09-04T18:18:55.451Z,4.43
2018-09-04T18:21:25.157Z,5.47
2018-09-04T18:23:55.562Z,5.18
2018-09-04T18:26:25.009Z,4.62
2018-09-04T18:28:54.227Z,5.93
2018-09-04T18:31:24.128Z,4.80
2018-09-04T18:33:55.706Z,5.10
2018-09-04T18:36:25.855Z,5.53
2018-09-04T18:38:55.212Z,6.45
2018-09-04T18:41:24.728Z,4.75
2018-09-04T18:43:55.223Z,4.22
2018-09-04T18:46:25.284Z,5.90
2018-09-04T18:48:54.648Z,4.07
2018-09-04T18:51:23.671Z,7.03
2018-09-04T18:53:53.105Z,4.03
2018-09-04T18:56:22.449Z,4.82
2018-09-04T18:58:51.597Z,6.12
2018-09-04T19:01:20.937Z,4.18
2018-09-04T19:03:51.297Z,8.88
2018-09-04T19:06:20.456Z,5.70
2018-09-04T19:08:49.986Z,5.97
2018-09-04T19:11:19.669Z,5.60
2018-09-04T19:13:49.028Z,6.07
2018-09-04T19:16:18.805Z,5.78
2018-09-04T19:18:50.866Z,6.05
2018-09-04T19:21:20.367Z,6.72
2018-09-04T19:23:49.545Z,5.50
2018-09-04T19:26:19.563Z,6.05
2018-09-04T19:28:53.310Z,6.28
2018-09-04T19:31:22.862Z,5.50
2018-09-04T19:33:53.853Z,5.22
2018-09-04T19:36:23.338Z,5.80
2018-09-04T19:38:53.161Z,5.20
2018-09-04T19:41:22.915Z,5.03
2018-09-04T19:43:52.197Z,5.72
2018-09-04T19:46:22.884Z,5.70
2018-09-04T19:48:52.520Z,5.53
2018-09-04T19:51:23.597Z,5.40
2018-09-04T19:53:53.133Z,5.87
2018-09-04T19:56:22.895Z,5.40
2018-09-04T19:58:54.005Z,6.80
2018-09-04T20:01:23.519Z,5.85
2018-09-04T20:03:53.021Z,7.43
2018-09-04T20:06:22.673Z,6.95
2018-09-04T20:08:52.576Z,7.03
2018-09-04T20:11:21.919Z,5.82
2018-09-04T20:13:51.264Z,7.00
2018-09-04T20:16:20.752Z,6.32
2018-09-04T20:18:50.770Z,6.00
2018-09-04T20:21:20.761Z,7.80
2018-09-04T20:23:51.145Z,6.15
2018-09-04T20:26:20.589Z,6.37
2018-09-04T20:28:50.360Z,6.35
2018-09-04T20:31:19.892Z,7.93
2018-09-04T20:33:49.373Z,11.55
2018-09-04T20:36:19.431Z,9.27
2018-09-04T20:38:49.128Z,7.12
2018-09-04T20:41:18.490Z,10.73
2018-09-04T20:43:48.858Z,7.65
2018-09-04T20:46:18.525Z,8.05
2018-09-04T20:48:49.116Z,7.07
2018-09-04T20:51:19.319Z,8.65
2018-09-04T20:53:49.076Z,7.57
2018-09-04T20:56:18.735Z,6.75
2018-09-04T20:58:59.473Z,8.48
2018-09-04T21:01:40.477Z,7.45
2018-09-04T21:04:21.264Z,7.57
2018-09-04T21:06:51.829Z,7.03
2018-09-04T21:09:21.748Z,7.18
2018-09-04T21:11:51.454Z,7.22
2018-09-04T21:14:20.912Z,6.78
2018-09-04T21:16:51.474Z,6.45
2018-09-04T21:19:21.065Z,7.25
2018-09-04T21:21:50.296Z,7.20
2018-09-04T21:24:20.704Z,6.45
2018-09-04T21:26:50.479Z,6.07
2018-09-04T21:29:20.694Z,6.32
2018-09-04T21:31:50.086Z,7.62
2018-09-04T21:34:19.875Z,7.57
2018-09-04T21:36:51.363Z,6.97
2018-09-04T21:39:21.832Z,6.82
2018-09-04T21:41:51.034Z,7.47
2018-09-04T21:44:20.527Z,7.03
2018-09-04T21:46:49.902Z,8.65
2018-09-04T21:49:19.225Z,8.50
2018-09-04T21:51:48.708Z,6.87
2018-09-04T21:54:19.127Z,6.30
2018-09-04T21:56:49.205Z,6.78
2018-09-04T21:59:18.669Z,6.78
2018-09-04T22:01:48.262Z,8.90
2018-09-04T22:04:19.140Z,7.12
2018-09-04T22:06:48.698Z,8.00
2018-09-04T22:09:19.378Z,8.63
2018-09-04T22:11:48.642Z,6.87
2018-09-04T22:14:19.004Z,6.37
2018-09-04T22:16:49.549Z,7.50
2018-09-04T22:19:19.015Z,8.52
2018-09-04T22:21:48.535Z,7.50
2018-09-04T22:24:19.156Z,8.38
2018-09-04T22:26:49.249Z,6.72
2018-09-04T22:29:19.851Z,7.65
2018-09-04T22:31:49.205Z,6.03
2018-09-04T22:34:18.676Z,6.12
2018-09-04T22:36:48.475Z,5.68
2018-09-04T22:39:18.007Z,6.10
2018-09-04T22:41:47.384Z,5.47
2018-09-04T22:44:17.110Z,5.60
2018-09-04T22:46:46.816Z,5.72
2018-09-04T22:49:16.133Z,5.15
2018-09-04T22:51:46.275Z,5.95
2018-09-04T22:54:15.889Z,5.62
2018-09-04T22:56:45.381Z,6.20
2018-09-04T22:59:15.403Z,5.53
2018-09-04T23:01:45.436Z,6.18
2018-09-04T23:04:15.549Z,5.85
2018-09-04T23:06:46.076Z,9.02
2018-09-04T23:09:15.795Z,6.50
2018-09-04T23:11:45.287Z,6.55
2018-09-04T23:14:14.898Z,6.90
2018-09-04T23:16:44.451Z,6.90
2018-09-04T23:19:14.190Z,7.03
2018-09-04T23:21:45.045Z,7.20
2018-09-04T23:24:14.327Z,8.50
2018-09-04T23:26:44.746Z,8.02
2018-09-04T23:29:14.387Z,7.53
2018-09-04T23:31:43.875Z,6.90
2018-09-04T23:34:13.808Z,8.20
2018-09-04T23:36:43.537Z,7.97
2018-09-04T23:39:16.468Z,8.18
2018-09-04T23:41:47.484Z,8.90
2018-09-04T23:44:17.220Z,9.07
2018-09-04T23:46:46.833Z,8.60
2018-09-04T23:49:17.762Z,8.77
2018-09-04T23:51:48.109Z,9.02
2018-09-04T23:54:17.551Z,10.82
2018-09-04T23:56:46.937Z,7.97
2018-09-04T23:59:17.026Z,8.15
